This is the latest recevied weather packets stored in our database for station/object ED3YAB-7. If no packets are shown the sender has not sent any weather packets the latest 10 day(s).
| Time | Temp. | Humidity | Pressure | Rain* | Wind** | Luminosity | Snow |
|---|---|---|---|---|---|---|---|
| 1777589235 | 15.56° C | 63% | 1023.9 hPa | - | - | - | - |
| 1777588030 | 16.11° C | 63% | 1023.9 hPa | - | - | - | - |
| 1777586829 | 16.11° C | 63% | 1023.7 hPa | - | - | - | - |
| 1777585629 | 16.11° C | 63% | 1023.8 hPa | - | - | - | - |
| 1777584429 | 16.11° C | 63% | 1023.7 hPa | - | - | - | - |
| 1777583229 | 16.67° C | 62% | 1023.6 hPa | - | - | - | - |
| 1777582029 | 16.67° C | 61% | 1023.4 hPa | - | - | - | - |
| 1777580829 | 16.67° C | 60% | 1023.2 hPa | - | - | - | - |
| 1777579628 | 16.67° C | 59% | 1022.8 hPa | - | - | - | - |
| 1777578428 | 17.22° C | 56% | 1022.6 hPa | - | - | - | - |
| 1777577228 | 17.78° C | 52% | 1022.3 hPa | - | - | - | - |
| 1777576028 | 18.89° C | 45% | 1021.9 hPa | - | - | - | - |
| 1777574828 | 19.44° C | 40% | 1021.5 hPa | - | - | - | - |
| 1777574553 | 19.44° C | 39% | 1021.5 hPa | - | - | - | - |
| 1777573353 | 22.78° C | 31% | 1021.3 hPa | - | - | - | - |
| 1777572152 | 28.33° C | 23% | 1021 hPa | - | - | - | - |
| 1777570952 | 33.89° C | 17% | 1020.9 hPa | - | - | - | - |
| 1777569752 | 37.22° C | 15% | 1020.8 hPa | - | - | - | - |
| 1777568552 | 38.33° C | 15% | 1020.7 hPa | - | - | - | - |
| 1777567352 | 40.56° C | 13% | 1020.7 hPa | - | - | - | - |
| 1777566152 | 41.11° C | 13% | 1020.9 hPa | - | - | - | - |
| 1777564951 | 42.22° C | 13% | 1020.8 hPa | - | - | - | - |
| 1777564064 | 43.33° C | 12% | 1020.8 hPa | - | - | - | - |
| 1777563753 | 43.33° C | 12% | 1020.8 hPa | - | - | - | - |
| 1777562566 | 42.78° C | 12% | 1020.6 hPa | - | - | - | - |
* Rain since midnight (hover to see other rain measurements)
** Current wind speed in m/s (hover to see current wind gust speed)